createdAt,value
2023-04-06T00:04:58.584Z,5.77
2023-04-06T00:10:00.145Z,7.97
2023-04-06T00:15:02.537Z,5.33
2023-04-06T00:20:04.070Z,9.33
2023-04-06T00:25:05.894Z,9.50
2023-04-06T00:30:07.978Z,7.57
2023-04-06T00:35:09.602Z,7.50
2023-04-06T00:40:11.295Z,6.97
2023-04-06T00:45:13.809Z,7.80
2023-04-06T00:50:15.491Z,5.97
2023-04-06T00:55:16.877Z,8.43
2023-04-06T01:00:18.817Z,8.27
2023-04-06T01:05:21.557Z,6.47
2023-04-06T01:10:23.803Z,8.40
2023-04-06T01:15:26.858Z,8.10
2023-04-06T01:20:28.698Z,8.10
2023-04-06T01:25:30.146Z,8.40
2023-04-06T01:30:31.531Z,7.13
2023-04-06T01:35:33.267Z,5.27
2023-04-06T01:40:34.749Z,8.43
2023-04-06T01:45:36.618Z,9.60
2023-04-06T01:50:38.043Z,7.47
2023-04-06T01:55:39.496Z,7.77
2023-04-06T02:00:41.284Z,9.23
2023-04-06T02:05:42.704Z,6.43
2023-04-06T02:10:44.135Z,7.40
2023-04-06T02:15:45.577Z,7.60
2023-04-06T02:20:47.251Z,9.57
2023-04-06T02:25:48.716Z,9.30
2023-04-06T02:30:50.504Z,8.13
2023-04-06T02:35:51.939Z,8.03
2023-04-06T02:40:53.406Z,8.97
2023-04-06T02:45:55.007Z,8.03
2023-04-06T02:50:56.668Z,10.53
2023-04-06T02:55:58.065Z,7.87
2023-04-06T03:00:59.488Z,7.53
2023-04-06T03:06:01.213Z,10.53
2023-04-06T03:11:02.677Z,10.03
2023-04-06T03:16:04.520Z,9.07
2023-04-06T03:21:06.089Z,8.97
2023-04-06T03:26:07.461Z,10.27
2023-04-06T03:31:08.981Z,13.53
2023-04-06T03:36:10.640Z,16.00
2023-04-06T03:41:12.093Z,18.73
2023-04-06T03:46:13.512Z,15.63
2023-04-06T03:51:14.954Z,18.27
2023-04-06T03:56:16.387Z,15.57
2023-04-06T04:01:19.236Z,16.70
2023-04-06T04:06:20.727Z,16.77
2023-04-06T04:11:22.138Z,19.60
2023-04-06T04:16:23.625Z,16.97
2023-04-06T04:21:26.434Z,16.27
2023-04-06T04:26:27.846Z,19.10
2023-04-06T04:31:29.328Z,16.43
2023-04-06T04:36:30.849Z,20.90
2023-04-06T04:41:32.346Z,19.33
2023-04-06T04:46:33.721Z,24.27
2023-04-06T04:51:35.481Z,22.77
2023-04-06T04:56:36.901Z,28.00
2023-04-06T05:01:53.544Z,27.83
2023-04-06T05:07:08.949Z,27.90
2023-04-06T05:12:10.715Z,26.65
2023-04-06T05:17:12.239Z,27.17
2023-04-06T05:22:15.234Z,27.23
2023-04-06T05:27:16.755Z,25.30
2023-04-06T05:32:22.956Z,29.77
2023-04-06T05:37:24.374Z,27.30
2023-04-06T05:42:25.793Z,27.80
2023-04-06T05:47:27.322Z,29.37
2023-04-06T05:52:28.724Z,32.20
2023-04-06T05:57:30.329Z,26.40
2023-04-06T06:02:32.191Z,26.27
2023-04-06T06:07:34.041Z,36.10
2023-04-06T06:12:35.457Z,31.93
2023-04-06T06:17:38.934Z,29.17
2023-04-06T06:22:41.239Z,21.53
2023-04-06T06:27:43.348Z,22.47
2023-04-06T06:32:44.829Z,17.80
2023-04-06T06:37:46.404Z,18.33
2023-04-06T06:42:47.864Z,19.03
2023-04-06T06:47:49.397Z,22.10
2023-04-06T06:52:51.008Z,20.47
2023-04-06T06:57:52.483Z,18.73
2023-04-06T07:02:53.957Z,18.33
2023-04-06T07:07:56.145Z,16.83
2023-04-06T07:12:57.713Z,18.00
2023-04-06T07:18:00.575Z,16.47
2023-04-06T07:23:03.526Z,19.07
2023-04-06T07:28:05.003Z,15.30
2023-04-06T07:33:06.752Z,15.40
2023-04-06T07:38:08.378Z,12.80
2023-04-06T07:43:09.842Z,13.93
2023-04-06T07:48:11.340Z,14.45
2023-04-06T07:53:12.824Z,13.48
2023-04-06T07:58:14.241Z,12.98
2023-04-06T08:03:16.087Z,13.35
2023-04-06T08:08:17.934Z,11.65
2023-04-06T08:13:19.373Z,11.93
2023-04-06T08:18:21.050Z,10.63
2023-04-06T08:23:22.565Z,9.63
2023-04-06T08:28:24.100Z,9.95
2023-04-06T08:33:25.902Z,11.57
2023-04-06T08:38:27.426Z,9.18
2023-04-06T08:43:29.472Z,10.55
2023-04-06T08:48:30.952Z,8.65
2023-04-06T08:53:32.402Z,9.50
2023-04-06T08:58:39.975Z,11.23
2023-04-06T09:03:42.158Z,10.75
2023-04-06T09:08:43.891Z,12.05
2023-04-06T09:13:52.069Z,14.38
2023-04-06T09:18:53.607Z,8.48
2023-04-06T09:24:02.044Z,10.27
2023-04-06T09:29:04.445Z,6.95
2023-04-06T09:34:06.821Z,7.03
2023-04-06T09:39:08.567Z,9.52
2023-04-06T09:44:11.173Z,7.90
2023-04-06T09:49:14.464Z,6.72
2023-04-06T09:54:19.739Z,10.38
2023-04-06T09:59:31.239Z,7.05
2023-04-06T10:04:35.816Z,6.45
2023-04-06T10:09:38.052Z,6.82
2023-04-06T10:14:40.243Z,6.20
2023-04-06T10:19:56.303Z,7.10
2023-04-06T10:24:57.810Z,4.45
2023-04-06T10:30:03.572Z,5.93
2023-04-06T10:35:11.738Z,4.40
2023-04-06T10:40:28.608Z,6.68
2023-04-06T10:45:32.253Z,3.63
2023-04-06T10:50:34.488Z,8.05
2023-04-06T10:55:35.975Z,5.00
2023-04-06T11:00:50.216Z,4.45
2023-04-06T11:05:52.776Z,4.03
2023-04-06T11:11:06.767Z,5.47
2023-04-06T11:21:09.627Z,8.93
2023-04-06T11:26:11.841Z,5.40
2023-04-06T11:31:13.355Z,4.35
2023-04-06T11:36:16.467Z,5.03
2023-04-06T11:41:18.844Z,5.13
2023-04-06T11:46:20.803Z,9.02
2023-04-06T11:51:25.378Z,5.25
2023-04-06T11:56:30.381Z,6.40
2023-04-06T12:01:36.855Z,5.68
2023-04-06T12:06:40.617Z,6.15
2023-04-06T12:11:42.079Z,7.97
2023-04-06T12:16:43.479Z,9.77
2023-04-06T12:21:44.880Z,7.50
2023-04-06T12:26:47.083Z,9.93
2023-04-06T12:31:49.785Z,9.13
2023-04-06T12:36:51.485Z,9.30
2023-04-06T12:41:53.652Z,7.72
2023-04-06T12:46:55.210Z,6.65
2023-04-06T12:51:56.972Z,10.93
2023-04-06T12:56:58.733Z,9.73
2023-04-06T13:02:00.417Z,10.75
2023-04-06T13:07:01.820Z,10.38
2023-04-06T13:12:03.437Z,7.35
2023-04-06T13:17:04.985Z,8.15
2023-04-06T13:22:06.432Z,7.38
2023-04-06T13:27:07.987Z,9.02
2023-04-06T13:32:11.274Z,7.93
2023-04-06T13:37:14.078Z,18.23
2023-04-06T13:42:15.848Z,9.60
2023-04-06T13:47:17.576Z,9.48
2023-04-06T13:52:19.592Z,8.35
2023-04-06T13:57:21.216Z,8.85
2023-04-06T14:02:28.158Z,9.90
2023-04-06T14:07:29.902Z,9.95
2023-04-06T14:12:32.702Z,12.65
2023-04-06T14:17:34.242Z,8.32
2023-04-06T14:22:36.350Z,9.95
2023-04-06T14:27:37.923Z,10.30
2023-04-06T14:32:39.595Z,9.38
2023-04-06T14:37:41.307Z,10.13
2023-04-06T14:42:42.684Z,9.32
2023-04-06T14:47:44.097Z,9.70
2023-04-06T14:52:47.177Z,9.65
2023-04-06T14:57:48.611Z,8.25
2023-04-06T15:02:50.121Z,10.52
2023-04-06T15:07:51.623Z,9.73
2023-04-06T15:12:53.178Z,9.75
2023-04-06T15:17:54.733Z,9.95
2023-04-06T15:22:56.269Z,12.20
2023-04-06T15:27:59.626Z,12.15
2023-04-06T15:33:02.363Z,14.00
2023-04-06T15:38:03.766Z,11.35
2023-04-06T15:43:06.263Z,9.73
2023-04-06T15:48:08.015Z,12.10
2023-04-06T15:53:09.519Z,10.57
2023-04-06T15:58:11.063Z,9.25
2023-04-06T16:03:12.666Z,8.40
2023-04-06T16:08:15.354Z,11.68
2023-04-06T16:13:16.734Z,8.38
2023-04-06T16:18:18.602Z,9.57
2023-04-06T16:23:20.059Z,8.43
2023-04-06T16:28:23.192Z,9.02
2023-04-06T16:33:24.763Z,8.43
2023-04-06T16:38:30.046Z,9.43
2023-04-06T16:43:32.267Z,10.05
2023-04-06T16:48:33.758Z,11.05
2023-04-06T16:53:35.630Z,9.80
2023-04-06T16:58:37.785Z,8.32
2023-04-06T17:03:39.350Z,8.15
2023-04-06T17:08:45.078Z,8.13
2023-04-06T17:13:48.529Z,7.97
2023-04-06T17:18:50.306Z,9.13
2023-04-06T17:23:51.799Z,22.02
2023-04-06T17:28:53.252Z,8.75
2023-04-06T17:33:54.697Z,8.45
2023-04-06T17:38:56.278Z,8.30
2023-04-06T17:43:57.701Z,8.68
2023-04-06T17:48:59.147Z,7.93
2023-04-06T17:54:00.586Z,11.40
2023-04-06T17:59:02.649Z,9.25
2023-04-06T18:04:04.058Z,10.35
2023-04-06T18:09:05.482Z,9.52
2023-04-06T18:14:12.471Z,10.32
2023-04-06T18:19:14.549Z,13.93
2023-04-06T18:24:27.366Z,20.60
2023-04-06T18:29:35.020Z,12.95
2023-04-06T18:34:36.530Z,17.38
2023-04-06T18:39:37.949Z,10.90
2023-04-06T18:44:39.291Z,12.27
2023-04-06T18:49:40.672Z,12.55
2023-04-06T18:54:42.544Z,13.27
2023-04-06T18:59:43.914Z,15.05
2023-04-06T19:04:45.343Z,12.73
2023-04-06T19:09:46.997Z,10.65
2023-04-06T19:14:51.885Z,16.55
2023-04-06T19:19:53.289Z,9.68
2023-04-06T19:24:54.848Z,12.32
2023-04-06T19:29:56.611Z,13.25
2023-04-06T19:34:59.674Z,11.98
2023-04-06T19:40:01.194Z,11.05
2023-04-06T19:45:02.658Z,9.93
2023-04-06T19:50:05.589Z,11.93
2023-04-06T19:55:07.255Z,12.30
2023-04-06T20:00:09.177Z,9.95
2023-04-06T20:05:10.678Z,10.27
2023-04-06T20:10:12.246Z,9.83
2023-04-06T20:15:13.846Z,12.40
2023-04-06T20:20:15.458Z,9.90
2023-04-06T20:25:17.800Z,9.77
2023-04-06T20:30:19.202Z,10.77
2023-04-06T20:35:20.776Z,10.37
2023-04-06T20:40:22.353Z,10.77
2023-04-06T20:45:25.123Z,10.37
2023-04-06T20:50:26.630Z,11.77
2023-04-06T20:55:28.116Z,14.27
2023-04-06T21:00:29.523Z,10.67
2023-04-06T21:05:30.959Z,10.90
2023-04-06T21:10:32.354Z,10.93
2023-04-06T21:15:33.812Z,10.77
2023-04-06T21:20:35.478Z,11.00
2023-04-06T21:25:37.464Z,11.37
2023-04-06T21:30:39.084Z,10.50
2023-04-06T21:35:40.932Z,9.13
2023-04-06T21:40:42.462Z,10.50
2023-04-06T21:45:48.549Z,10.50
2023-04-06T21:50:50.015Z,10.47
2023-04-06T21:55:51.592Z,13.27
2023-04-06T22:00:52.962Z,9.03
2023-04-06T22:05:54.382Z,11.03
2023-04-06T22:10:55.877Z,13.10
2023-04-06T22:15:57.557Z,13.37
2023-04-06T22:20:59.218Z,14.77
2023-04-06T22:26:00.662Z,10.17
2023-04-06T22:31:02.212Z,11.40
2023-04-06T22:36:03.797Z,13.37
2023-04-06T22:41:06.656Z,9.73
2023-04-06T22:46:10.296Z,9.93
2023-04-06T22:51:11.668Z,11.33
2023-04-06T22:56:13.128Z,12.13
2023-04-06T23:01:14.645Z,10.80
2023-04-06T23:06:16.401Z,10.97
2023-04-06T23:11:17.955Z,13.83
2023-04-06T23:16:19.404Z,10.00
2023-04-06T23:21:21.190Z,9.43
2023-04-06T23:26:24.434Z,16.30
2023-04-06T23:31:25.814Z,11.60
2023-04-06T23:36:27.648Z,11.27
2023-04-06T23:41:29.116Z,9.97
2023-04-06T23:46:30.552Z,12.10
2023-04-06T23:51:32.021Z,11.33
2023-04-06T23:56:33.554Z,13.33
